createdAt,value
2022-08-09T00:00:19.516Z,19.86
2022-08-09T00:02:49.786Z,19.85
2022-08-09T00:06:17.698Z,19.74
2022-08-09T00:08:10.807Z,19.69
2022-08-09T00:10:41.441Z,19.62
2022-08-09T00:13:17.448Z,19.66
2022-08-09T00:15:59.445Z,19.59
2022-08-09T00:18:35.581Z,19.61
2022-08-09T00:21:07.683Z,19.67
2022-08-09T00:23:55.409Z,19.71
2022-08-09T00:26:32.753Z,19.75
2022-08-09T00:29:02.529Z,19.74
2022-08-09T00:31:59.244Z,19.76
2022-08-09T00:34:21.954Z,19.72
2022-08-09T00:36:52.670Z,19.71
2022-08-09T00:40:13.928Z,19.68
2022-08-09T00:44:11.421Z,19.62
2022-08-09T00:45:14.939Z,19.62
2022-08-09T00:47:47.055Z,19.58
2022-08-09T00:50:17.873Z,19.55
2022-08-09T00:52:45.971Z,19.52
2022-08-09T00:55:32.701Z,19.50
2022-08-09T00:58:03.774Z,19.47
2022-08-09T01:00:39.865Z,19.42
2022-08-09T01:03:16.006Z,19.33
2022-08-09T01:05:54.236Z,19.32
2022-08-09T01:08:30.155Z,19.23
2022-08-09T01:11:15.018Z,19.17
2022-08-09T01:13:59.322Z,19.17
2022-08-09T01:16:35.083Z,19.06
2022-08-09T01:19:17.070Z,19.05
2022-08-09T01:22:33.836Z,19.00
2022-08-09T01:25:19.327Z,18.92
2022-08-09T01:27:57.880Z,18.84
2022-08-09T01:30:35.682Z,18.73
2022-08-09T01:33:20.537Z,18.69
2022-08-09T01:35:59.235Z,18.62
2022-08-09T01:38:31.538Z,18.56
2022-08-09T01:41:07.273Z,18.52
2022-08-09T01:43:42.166Z,18.50
2022-08-09T01:46:27.257Z,18.40
2022-08-09T01:48:59.907Z,18.33
2022-08-09T01:51:34.382Z,18.29
2022-08-09T01:54:06.510Z,18.19
2022-08-09T01:56:39.114Z,18.15
2022-08-09T01:59:16.186Z,18.08
2022-08-09T02:01:58.099Z,18.03
2022-08-09T02:04:32.161Z,18.03
2022-08-09T02:07:18.164Z,17.98
2022-08-09T02:10:04.161Z,17.96
2022-08-09T02:12:35.535Z,17.84
2022-08-09T02:18:42.724Z,17.88
2022-08-09T02:21:17.227Z,17.93
2022-08-09T02:23:56.606Z,17.88
2022-08-09T02:26:31.177Z,17.83
2022-08-09T02:29:08.069Z,17.82
2022-08-09T02:31:41.949Z,17.84
2022-08-09T02:34:40.193Z,17.76
2022-08-09T02:37:07.150Z,17.84
2022-08-09T02:39:49.605Z,17.78
2022-08-09T02:42:28.376Z,17.80
2022-08-09T02:45:03.287Z,17.72
2022-08-09T02:47:57.624Z,17.72
2022-08-09T02:50:30.699Z,17.67
2022-08-09T02:53:03.676Z,17.55
2022-08-09T02:55:46.848Z,17.57
2022-08-09T02:58:35.764Z,17.53
2022-08-09T03:01:11.024Z,17.44
2022-08-09T03:04:17.258Z,17.48
2022-08-09T03:06:37.038Z,17.43
2022-08-09T03:09:06.226Z,17.39
2022-08-09T03:12:09.811Z,17.34
2022-08-09T03:14:31.741Z,17.39
2022-08-09T03:17:02.101Z,17.34
2022-08-09T03:19:52.471Z,17.32
2022-08-09T03:22:30.445Z,17.29
2022-08-09T03:25:05.985Z,17.30
2022-08-09T03:27:51.198Z,17.27
2022-08-09T03:30:29.323Z,17.20
2022-08-09T03:33:05.610Z,17.17
2022-08-09T03:36:11.643Z,17.16
2022-08-09T03:38:32.485Z,17.14
2022-08-09T03:41:00.815Z,17.14
2022-08-09T03:43:31.573Z,17.01
2022-08-09T03:46:05.178Z,17.08
2022-08-09T03:48:53.933Z,17.06
2022-08-09T03:51:57.122Z,17.05
2022-08-09T03:54:29.425Z,17.00
2022-08-09T03:57:18.404Z,17.01
2022-08-09T03:59:53.333Z,17.04
2022-08-09T04:02:27.888Z,17.00
2022-08-09T04:05:06.433Z,17.04
2022-08-09T04:07:52.281Z,17.07
2022-08-09T04:10:29.079Z,17.05
2022-08-09T04:13:04.477Z,17.05
2022-08-09T04:16:17.165Z,17.14
2022-08-09T04:18:22.029Z,17.04
2022-08-09T04:20:51.506Z,17.05
2022-08-09T04:23:24.355Z,17.06
2022-08-09T04:25:54.692Z,17.04
2022-08-09T04:28:33.243Z,17.01
2022-08-09T04:31:12.943Z,17.00
2022-08-09T04:33:47.280Z,17.07
2022-08-09T04:36:23.397Z,17.08
2022-08-09T04:38:52.870Z,17.09
2022-08-09T04:41:32.243Z,17.11
2022-08-09T04:44:06.263Z,17.17
2022-08-09T04:47:00.138Z,17.19
2022-08-09T04:49:52.979Z,17.22
2022-08-09T04:52:26.600Z,17.25
2022-08-09T04:54:56.107Z,17.22
2022-08-09T04:57:26.038Z,17.27
2022-08-09T04:59:55.761Z,17.21
2022-08-09T05:02:27.309Z,17.30
2022-08-09T05:04:56.550Z,17.34
2022-08-09T05:07:27.897Z,17.36
2022-08-09T05:10:05.390Z,17.38
2022-08-09T05:12:35.232Z,17.41
2022-08-09T05:15:11.589Z,17.48
2022-08-09T05:18:37.520Z,17.59
2022-08-09T05:20:30.493Z,17.80
2022-08-09T05:23:56.742Z,18.14
2022-08-09T05:25:50.935Z,18.59
2022-08-09T05:28:21.208Z,18.98
2022-08-09T05:30:51.535Z,19.25
2022-08-09T05:33:26.391Z,19.72
2022-08-09T05:36:01.970Z,20.05
2022-08-09T05:38:32.833Z,20.21
2022-08-09T05:41:01.331Z,20.39
2022-08-09T05:43:31.965Z,20.60
2022-08-09T05:46:00.872Z,20.71
2022-08-09T05:48:33.290Z,20.51
2022-08-09T05:51:42.378Z,20.83
2022-08-09T05:53:57.519Z,20.99
2022-08-09T05:56:27.469Z,20.89
2022-08-09T05:58:59.220Z,20.95
2022-08-09T06:01:33.708Z,21.14
2022-08-09T06:04:13.102Z,21.42
2022-08-09T06:06:49.955Z,21.61
2022-08-09T06:09:40.799Z,21.95
2022-08-09T06:12:07.524Z,22.06
2022-08-09T06:14:39.970Z,22.23
2022-08-09T06:17:09.340Z,22.43
2022-08-09T06:19:39.176Z,22.63
2022-08-09T06:22:14.982Z,23.03
2022-08-09T06:24:43.832Z,23.76
2022-08-09T06:27:12.083Z,23.84
2022-08-09T06:29:48.362Z,24.42
2022-08-09T06:33:00.778Z,24.55
2022-08-09T06:35:20.952Z,24.85
2022-08-09T06:38:05.948Z,25.24
2022-08-09T06:40:35.330Z,25.47
2022-08-09T06:43:04.399Z,25.72
2022-08-09T06:46:06.312Z,26.11
2022-08-09T06:48:31.131Z,26.44
2022-08-09T06:51:05.130Z,26.40
2022-08-09T06:53:38.720Z,26.66
2022-08-09T06:56:07.230Z,26.49
2022-08-09T07:00:53.011Z,27.02
2022-08-09T07:01:51.905Z,27.13
2022-08-09T07:04:20.173Z,27.19
2022-08-09T07:06:53.321Z,27.38
2022-08-09T07:09:57.253Z,27.20
2022-08-09T07:12:13.779Z,27.45
2022-08-09T07:14:50.789Z,28.27
2022-08-09T07:19:39.533Z,28.45
2022-08-09T07:22:10.790Z,28.78
2022-08-09T07:24:40.600Z,28.42
2022-08-09T07:27:33.316Z,29.87
2022-08-09T07:30:02.716Z,30.56
2022-08-09T07:32:34.307Z,30.28
2022-08-09T07:35:10.824Z,31.06
2022-08-09T07:37:43.379Z,31.23
2022-08-09T07:40:17.488Z,31.57
2022-08-09T07:42:51.400Z,31.69
2022-08-09T07:45:39.937Z,31.07
2022-08-09T07:48:22.513Z,32.04
2022-08-09T07:51:09.077Z,31.71
2022-08-09T07:54:05.059Z,31.85
2022-08-09T07:56:44.982Z,32.19
2022-08-09T07:59:25.538Z,32.36
2022-08-09T08:02:04.886Z,32.52
2022-08-09T08:04:34.276Z,32.72
2022-08-09T08:07:14.882Z,32.34
2022-08-09T08:10:08.001Z,32.67
2022-08-09T08:12:43.257Z,32.86
2022-08-09T08:15:14.181Z,33.88
2022-08-09T08:17:55.057Z,32.98
2022-08-09T08:20:30.808Z,33.76
2022-08-09T08:23:17.061Z,33.49
2022-08-09T08:25:48.372Z,33.83
2022-08-09T08:28:31.925Z,33.79
2022-08-09T08:31:04.868Z,34.71
2022-08-09T08:33:52.163Z,34.13
2022-08-09T08:36:29.825Z,34.64
2022-08-09T08:39:00.672Z,34.49
2022-08-09T08:41:51.097Z,35.16
2022-08-09T08:44:27.165Z,35.31
2022-08-09T08:47:03.248Z,34.98
2022-08-09T08:49:46.316Z,35.80
2022-08-09T08:52:57.510Z,35.58
2022-08-09T08:55:13.604Z,37.09
2022-08-09T08:57:43.643Z,36.04
2022-08-09T09:00:27.526Z,36.33
2022-08-09T09:03:12.070Z,35.64
2022-08-09T09:05:58.520Z,35.77
2022-08-09T09:08:38.095Z,36.16
2022-08-09T09:11:17.781Z,36.22
2022-08-09T09:13:56.307Z,36.39
2022-08-09T09:16:30.913Z,35.46
2022-08-09T09:22:05.257Z,36.33
2022-08-09T09:24:38.212Z,36.78
2022-08-09T09:28:03.625Z,37.10
2022-08-09T09:30:26.167Z,36.54
2022-08-09T09:33:15.366Z,36.74
2022-08-09T09:36:02.028Z,36.62
2022-08-09T09:38:45.321Z,36.74
2022-08-09T09:41:33.304Z,35.99
2022-08-09T09:44:27.514Z,37.52
2022-08-09T09:46:58.550Z,38.08
2022-08-09T09:49:49.714Z,37.26
2022-08-09T09:52:36.263Z,37.01
2022-08-09T09:55:28.227Z,36.73
2022-08-09T09:58:18.036Z,36.85
2022-08-09T10:00:53.852Z,38.84
2022-08-09T10:03:57.423Z,37.65
2022-08-09T10:06:32.246Z,38.20
2022-08-09T10:09:11.783Z,39.63
2022-08-09T10:12:04.601Z,38.65
2022-08-09T10:14:48.258Z,38.51
2022-08-09T10:17:50.400Z,39.36
2022-08-09T10:20:27.151Z,39.01
2022-08-09T10:23:17.475Z,39.26
2022-08-09T10:26:06.728Z,39.19
2022-08-09T10:28:38.460Z,39.38
2022-08-09T10:34:10.362Z,39.40
2022-08-09T10:36:46.799Z,40.01
2022-08-09T10:42:47.540Z,39.71
2022-08-09T10:45:24.592Z,39.22
2022-08-09T10:48:19.382Z,38.80
2022-08-09T10:51:15.434Z,38.60
2022-08-09T10:53:54.487Z,38.83
2022-08-09T10:56:25.615Z,38.13
2022-08-09T10:58:58.252Z,37.36
2022-08-09T11:03:12.074Z,37.29
2022-08-09T11:04:32.791Z,37.56
2022-08-09T11:07:57.869Z,37.68
2022-08-09T11:10:57.844Z,37.42
2022-08-09T11:13:50.002Z,37.31
2022-08-09T11:16:36.225Z,38.94
2022-08-09T11:19:10.932Z,38.55
2022-08-09T11:22:16.582Z,38.07
2022-08-09T11:25:08.088Z,37.37
2022-08-09T11:28:03.692Z,37.44
2022-08-09T11:30:36.772Z,39.21
2022-08-09T11:33:25.970Z,38.85
2022-08-09T11:35:58.902Z,38.70
2022-08-09T11:38:33.268Z,38.25
2022-08-09T11:41:37.519Z,36.79
2022-08-09T11:44:07.160Z,36.89
2022-08-09T11:46:58.098Z,37.12
2022-08-09T11:50:54.842Z,37.59
2022-08-09T11:53:59.727Z,36.69
2022-08-09T11:56:41.690Z,36.68
2022-08-09T11:59:12.298Z,36.68
2022-08-09T12:02:17.978Z,37.27
2022-08-09T12:04:37.204Z,37.52
2022-08-09T12:07:08.893Z,36.19
2022-08-09T12:09:37.493Z,35.84
2022-08-09T12:12:12.984Z,35.55
2022-08-09T12:15:08.082Z,34.96
2022-08-09T12:20:43.757Z,33.33
2022-08-09T12:23:24.528Z,33.17
2022-08-09T12:25:56.371Z,33.29
2022-08-09T12:28:58.955Z,33.11
2022-08-09T12:31:58.805Z,33.04
2022-08-09T12:34:09.693Z,32.95
2022-08-09T12:36:59.029Z,32.72
2022-08-09T12:39:43.346Z,32.71
2022-08-09T12:42:16.712Z,32.79
2022-08-09T12:44:51.945Z,32.02
2022-08-09T12:47:23.906Z,31.78
2022-08-09T12:50:06.115Z,31.72
2022-08-09T12:52:58.436Z,31.64
2022-08-09T12:56:15.560Z,31.61
2022-08-09T12:58:24.318Z,31.34
2022-08-09T13:00:58.794Z,31.16
2022-08-09T13:03:53.899Z,31.45
2022-08-09T13:06:40.770Z,31.18
2022-08-09T13:09:16.100Z,31.51
2022-08-09T13:11:46.616Z,31.67
2022-08-09T13:14:43.996Z,31.19
2022-08-09T13:17:08.541Z,31.45
2022-08-09T13:20:06.739Z,31.33
2022-08-09T13:22:37.826Z,31.23
2022-08-09T13:25:15.154Z,31.12
2022-08-09T13:27:54.856Z,31.16
2022-08-09T13:30:50.177Z,31.40
2022-08-09T13:33:52.676Z,30.90
2022-08-09T13:36:38.601Z,31.12
2022-08-09T13:41:17.752Z,31.65
2022-08-09T13:42:01.312Z,31.72
2022-08-09T13:44:30.933Z,31.39
2022-08-09T13:47:26.849Z,31.55
2022-08-09T13:49:57.207Z,31.55
2022-08-09T13:52:27.034Z,31.45
2022-08-09T13:54:59.920Z,31.60
2022-08-09T13:57:40.342Z,31.67
2022-08-09T14:00:13.304Z,31.49
2022-08-09T14:03:16.611Z,31.15
2022-08-09T14:05:59.585Z,31.21
2022-08-09T14:08:23.881Z,31.19
2022-08-09T14:10:55.258Z,31.00
2022-08-09T14:14:16.011Z,31.09
2022-08-09T14:16:28.657Z,31.11
2022-08-09T14:18:59.678Z,31.16
2022-08-09T14:21:29.217Z,31.02
2022-08-09T14:24:01.394Z,31.09
2022-08-09T14:26:38.370Z,30.97
2022-08-09T14:30:18.428Z,31.03
2022-08-09T14:32:04.653Z,31.11
2022-08-09T14:34:41.932Z,31.22
2022-08-09T14:37:10.266Z,31.12
2022-08-09T14:39:47.940Z,30.99
2022-08-09T14:42:30.656Z,30.80
2022-08-09T14:46:40.249Z,30.77
2022-08-09T14:47:58.056Z,30.77
2022-08-09T14:50:30.569Z,30.51
2022-08-09T14:53:00.535Z,30.52
2022-08-09T14:55:32.192Z,30.66
2022-08-09T14:58:05.492Z,30.47
2022-08-09T15:00:36.397Z,30.45
2022-08-09T15:03:07.771Z,30.56
2022-08-09T15:05:37.975Z,30.75
2022-08-09T15:08:06.249Z,30.87
2022-08-09T15:10:39.344Z,30.92
2022-08-09T15:13:08.711Z,30.85
2022-08-09T15:15:39.592Z,30.78
2022-08-09T15:18:14.080Z,30.84
2022-08-09T15:21:57.002Z,30.87
2022-08-09T15:24:01.338Z,30.75
2022-08-09T15:26:30.966Z,30.81
2022-08-09T15:29:04.342Z,30.74
2022-08-09T15:31:41.450Z,30.64
2022-08-09T15:34:33.000Z,30.44
2022-08-09T15:37:23.829Z,30.50
2022-08-09T15:39:54.948Z,30.39
2022-08-09T15:42:26.535Z,30.48
2022-08-09T15:44:58.227Z,30.51
2022-08-09T15:47:45.692Z,30.42
2022-08-09T15:50:18.324Z,30.49
2022-08-09T15:52:54.875Z,30.37
2022-08-09T15:56:04.603Z,30.24
2022-08-09T15:58:26.877Z,30.34
2022-08-09T16:00:56.424Z,30.40
2022-08-09T16:03:29.728Z,30.47
2022-08-09T16:06:07.733Z,30.50
2022-08-09T16:08:56.215Z,30.56
2022-08-09T16:11:24.368Z,30.43
2022-08-09T16:14:04.083Z,30.32
2022-08-09T16:16:42.065Z,30.32
2022-08-09T16:19:20.082Z,30.32
2022-08-09T16:21:51.991Z,30.23
2022-08-09T16:24:33.052Z,30.40
2022-08-09T16:27:01.503Z,30.29
2022-08-09T16:29:36.661Z,30.44
2022-08-09T16:32:18.467Z,30.34
2022-08-09T16:34:58.674Z,30.24
2022-08-09T16:37:53.328Z,30.21
2022-08-09T16:40:20.472Z,30.16
2022-08-09T16:42:49.242Z,30.22
2022-08-09T16:45:19.680Z,30.33
2022-08-09T16:48:41.798Z,30.42
2022-08-09T16:50:39.053Z,30.36
2022-08-09T16:53:09.037Z,30.30
2022-08-09T16:55:58.592Z,30.32
2022-08-09T16:58:30.708Z,30.08
2022-08-09T17:01:05.164Z,30.13
2022-08-09T17:03:36.286Z,30.12
2022-08-09T17:06:32.041Z,30.11
2022-08-09T17:09:13.600Z,30.17
2022-08-09T17:11:48.177Z,30.05
2022-08-09T17:14:28.600Z,29.97
2022-08-09T17:17:01.816Z,30.07
2022-08-09T17:21:39.631Z,29.76
2022-08-09T17:24:20.497Z,29.61
2022-08-09T17:26:58.255Z,29.56
2022-08-09T17:29:31.862Z,29.50
2022-08-09T17:32:08.854Z,29.43
2022-08-09T17:35:04.205Z,29.32
2022-08-09T17:38:14.295Z,29.27
2022-08-09T17:40:25.962Z,29.17
2022-08-09T17:42:59.615Z,29.08
2022-08-09T17:46:04.090Z,29.02
2022-08-09T17:48:29.195Z,29.00
2022-08-09T17:50:59.420Z,28.99
2022-08-09T17:53:43.319Z,28.96
2022-08-09T17:56:18.189Z,28.84
2022-08-09T17:58:46.898Z,28.76
2022-08-09T18:01:22.763Z,28.64
2022-08-09T18:03:52.425Z,28.52
2022-08-09T18:06:31.670Z,28.40
2022-08-09T18:09:04.756Z,28.32
2022-08-09T18:12:05.410Z,28.13
2022-08-09T18:14:25.162Z,28.09
2022-08-09T18:16:58.400Z,28.03
2022-08-09T18:20:54.791Z,28.04
2022-08-09T18:22:17.063Z,27.98
2022-08-09T18:24:47.618Z,27.87
2022-08-09T18:27:33.624Z,27.81
2022-08-09T18:30:42.269Z,27.70
2022-08-09T18:32:57.533Z,27.57
2022-08-09T18:35:48.068Z,27.49
2022-08-09T18:38:14.712Z,27.34
2022-08-09T18:40:46.694Z,27.19
2022-08-09T18:43:15.822Z,27.00
2022-08-09T18:46:47.208Z,26.94
2022-08-09T18:48:42.590Z,26.90
2022-08-09T18:51:10.873Z,26.80
2022-08-09T18:53:56.528Z,26.55
2022-08-09T18:56:33.483Z,26.40
2022-08-09T18:59:02.635Z,26.33
2022-08-09T19:01:45.922Z,26.24
2022-08-09T19:04:34.610Z,26.04
2022-08-09T19:07:05.328Z,25.97
2022-08-09T19:10:14.668Z,25.95
2022-08-09T19:12:26.012Z,25.75
2022-08-09T19:14:54.522Z,25.74
2022-08-09T19:17:23.165Z,25.72
2022-08-09T19:20:02.165Z,25.74
2022-08-09T19:22:30.875Z,25.62
2022-08-09T19:25:11.418Z,25.48
2022-08-09T19:27:51.039Z,25.30
2022-08-09T19:30:28.625Z,25.28
2022-08-09T19:32:59.891Z,25.35
2022-08-09T19:35:28.795Z,25.36
2022-08-09T19:38:16.890Z,25.20
2022-08-09T19:40:49.809Z,25.11
2022-08-09T19:44:01.242Z,25.02
2022-08-09T19:46:14.516Z,24.85
2022-08-09T19:49:00.927Z,24.82
2022-08-09T19:51:31.348Z,24.75
2022-08-09T19:54:02.163Z,24.73
2022-08-09T19:56:34.083Z,24.62
2022-08-09T19:59:40.530Z,24.62
2022-08-09T20:02:03.062Z,24.65
2022-08-09T20:04:40.660Z,24.68
2022-08-09T20:07:22.429Z,24.72
2022-08-09T20:09:50.906Z,24.77
2022-08-09T20:12:27.116Z,24.84
2022-08-09T20:16:33.646Z,24.83
2022-08-09T20:18:01.577Z,24.66
2022-08-09T20:20:30.060Z,24.62
2022-08-09T20:22:58.241Z,24.74
2022-08-09T20:25:28.945Z,24.71
2022-08-09T20:28:27.466Z,24.70
2022-08-09T20:31:04.659Z,24.78
2022-08-09T20:33:40.919Z,24.72
2022-08-09T20:36:09.982Z,24.60
2022-08-09T20:39:18.689Z,24.51
2022-08-09T20:41:32.282Z,24.40
2022-08-09T20:44:10.044Z,24.43
2022-08-09T20:46:44.624Z,24.34
2022-08-09T20:49:16.095Z,24.33
2022-08-09T20:51:45.371Z,24.33
2022-08-09T20:54:21.951Z,24.28
2022-08-09T20:56:55.597Z,24.05
2022-08-09T21:00:20.760Z,24.20
2022-08-09T21:02:18.572Z,24.19
2022-08-09T21:05:56.479Z,24.32
2022-08-09T21:07:40.751Z,24.32
2022-08-09T21:10:15.101Z,24.28
2022-08-09T21:15:27.523Z,24.13
2022-08-09T21:18:21.163Z,23.99
2022-08-09T21:20:55.986Z,23.98
2022-08-09T21:23:35.940Z,23.93
2022-08-09T21:26:12.805Z,23.84
2022-08-09T21:28:55.467Z,23.81
2022-08-09T21:31:24.530Z,23.74
2022-08-09T21:34:17.080Z,23.69
2022-08-09T21:36:58.808Z,23.72
2022-08-09T21:39:28.006Z,23.66
2022-08-09T21:42:11.995Z,23.56
2022-08-09T21:44:42.689Z,23.44
2022-08-09T21:47:14.144Z,23.35
2022-08-09T21:49:48.030Z,23.28
2022-08-09T21:52:20.362Z,23.29
2022-08-09T21:55:02.851Z,23.19
2022-08-09T21:57:38.382Z,23.20
2022-08-09T22:00:26.764Z,23.20
2022-08-09T22:03:06.008Z,23.19
2022-08-09T22:05:42.429Z,23.11
2022-08-09T22:08:13.574Z,23.12
2022-08-09T22:11:00.486Z,23.07
2022-08-09T22:13:34.850Z,22.92
2022-08-09T22:16:08.519Z,22.86
2022-08-09T22:18:37.569Z,22.77
2022-08-09T22:22:40.519Z,22.65
2022-08-09T22:26:05.866Z,22.60
2022-08-09T22:27:58.628Z,22.45
2022-08-09T22:30:31.466Z,22.42
2022-08-09T22:33:01.861Z,22.39
2022-08-09T22:36:00.120Z,22.31
2022-08-09T22:38:20.820Z,22.15
2022-08-09T22:40:57.537Z,22.12
2022-08-09T22:44:02.145Z,21.95
2022-08-09T22:48:14.811Z,21.88
2022-08-09T22:49:09.615Z,21.80
2022-08-09T22:51:39.488Z,21.82
2022-08-09T22:54:21.276Z,21.80
2022-08-09T22:56:54.642Z,21.79
2022-08-09T22:59:58.081Z,21.84
2022-08-09T23:02:15.207Z,21.77
2022-08-09T23:04:53.619Z,21.78
2022-08-09T23:08:22.492Z,21.72
2022-08-09T23:10:32.201Z,21.67
2022-08-09T23:13:02.350Z,21.61
2022-08-09T23:15:30.852Z,21.59
2022-08-09T23:17:58.933Z,21.54
2022-08-09T23:20:28.671Z,21.39
2022-08-09T23:22:56.855Z,21.26
2022-08-09T23:25:25.112Z,21.10
2022-08-09T23:28:14.986Z,20.99
2022-08-09T23:30:52.026Z,20.87
2022-08-09T23:33:20.757Z,20.77
2022-08-09T23:36:05.945Z,20.70
2022-08-09T23:38:48.966Z,20.62
2022-08-09T23:41:29.005Z,20.57
2022-08-09T23:43:59.898Z,20.55
2022-08-09T23:46:28.229Z,20.48
2022-08-09T23:48:58.851Z,20.40
2022-08-09T23:51:28.172Z,20.38
2022-08-09T23:54:03.229Z,20.32
2022-08-09T23:56:53.378Z,20.28
2022-08-09T23:59:22.739Z,20.25
